Aviation Digital Data Service (ADDS)

Output produced by METARs form (2321 UTC 01 September 2014)
found at http://www.aviationweather.gov/adds/metars/
 
KDEC 011741Z 0118/0218 25012G17KT P6SM SCT035 BKN150 
     FM012300 25008KT P6SM VCTS SCT035CB BKN150 
     FM020600 25008KT 5SM -RA BR VCTS BKN035CB 
     FM021100 VRB05KT P6SM BKN150